createdAt,value
2022-08-20T00:01:43.931Z,100133.38
2022-08-20T00:04:45.778Z,100135.47
2022-08-20T00:07:47.185Z,100135.00
2022-08-20T00:10:54.979Z,100129.25
2022-08-20T00:14:00.168Z,100128.66
2022-08-20T00:17:03.832Z,100132.47
2022-08-20T00:20:09.393Z,100138.28
2022-08-20T00:23:11.181Z,100138.94
2022-08-20T00:26:13.473Z,100144.03
2022-08-20T00:29:16.374Z,100144.66
2022-08-20T00:32:21.685Z,100149.59
2022-08-20T00:35:26.652Z,100145.00
2022-08-20T00:38:28.064Z,100137.09
2022-08-20T00:41:30.927Z,100146.09
2022-08-20T00:44:32.995Z,100150.19
2022-08-20T00:47:34.809Z,100155.00
2022-08-20T00:50:37.983Z,100156.25
2022-08-20T00:53:39.701Z,100160.09
2022-08-20T00:56:43.955Z,100155.19
2022-08-20T00:59:45.472Z,100154.25
2022-08-20T01:02:47.898Z,100152.84
2022-08-20T01:05:51.640Z,100163.34
2022-08-20T01:08:53.136Z,100167.94
2022-08-20T01:11:54.686Z,100163.09
2022-08-20T01:14:58.576Z,100160.69
2022-08-20T01:18:01.899Z,100162.25
2022-08-20T01:21:06.599Z,100167.56
2022-08-20T01:24:26.179Z,100170.09
2022-08-20T01:27:28.592Z,100170.31
2022-08-20T01:30:33.821Z,100172.16
2022-08-20T01:33:35.461Z,100182.91
2022-08-20T01:36:46.448Z,100174.03
2022-08-20T01:39:48.138Z,100175.28
2022-08-20T01:42:52.746Z,100176.19
2022-08-20T01:46:01.358Z,100177.19
2022-08-20T01:49:15.663Z,100169.34
2022-08-20T01:52:36.976Z,100173.78
2022-08-20T01:55:38.829Z,100181.00
2022-08-20T01:58:44.414Z,100185.91
2022-08-20T02:01:46.767Z,100190.59
2022-08-20T02:04:48.887Z,100187.91
2022-08-20T02:07:50.528Z,100188.63
2022-08-20T02:10:52.037Z,100185.13
2022-08-20T02:13:54.545Z,100191.91
2022-08-20T02:16:58.571Z,100192.69
2022-08-20T02:20:06.165Z,100194.38
2022-08-20T02:23:08.179Z,100198.97
2022-08-20T02:26:09.705Z,100208.38
2022-08-20T02:29:12.986Z,100214.53
2022-08-20T02:32:32.668Z,100210.97
2022-08-20T02:35:37.560Z,100214.38
2022-08-20T02:38:40.953Z,100212.69
2022-08-20T02:41:42.464Z,100202.63
2022-08-20T02:44:43.959Z,100197.69
2022-08-20T02:47:46.619Z,100196.78
2022-08-20T02:50:51.422Z,100206.16
2022-08-20T02:53:52.900Z,100203.16
2022-08-20T02:56:54.297Z,100205.47
2022-08-20T02:59:56.536Z,100203.56
2022-08-20T03:02:59.173Z,100212.41
2022-08-20T03:06:00.823Z,100195.91
2022-08-20T03:09:04.988Z,100205.69
2022-08-20T03:12:07.994Z,100200.69
2022-08-20T03:15:17.651Z,100203.34
2022-08-20T03:18:21.085Z,100194.72
2022-08-20T03:21:22.642Z,100195.97
2022-08-20T03:24:24.102Z,100200.16
2022-08-20T03:27:26.215Z,100200.13
2022-08-20T03:30:38.051Z,100195.63
2022-08-20T03:33:39.632Z,100202.13
2022-08-20T03:36:55.076Z,100210.34
2022-08-20T03:39:56.706Z,100206.59
2022-08-20T03:42:58.868Z,100210.69
2022-08-20T03:46:00.455Z,100207.53
2022-08-20T03:49:02.011Z,100204.53
2022-08-20T03:52:05.155Z,100205.41
2022-08-20T03:55:08.918Z,100202.56
2022-08-20T03:58:10.962Z,100201.81
2022-08-20T04:01:45.674Z,100210.81
2022-08-20T04:04:34.333Z,100208.56
2022-08-20T04:07:37.767Z,100204.41
2022-08-20T04:10:39.740Z,100201.66
2022-08-20T04:13:41.933Z,100198.00
2022-08-20T04:16:45.521Z,100204.88
2022-08-20T04:19:49.028Z,100200.22
2022-08-20T04:22:59.310Z,100207.63
2022-08-20T04:26:01.501Z,100208.78
2022-08-20T04:29:04.000Z,100203.09
2022-08-20T04:32:06.203Z,100209.31
2022-08-20T04:35:11.629Z,100213.78
2022-08-20T04:38:17.350Z,100209.13
2022-08-20T04:41:22.998Z,100207.06
2022-08-20T04:44:25.263Z,100205.41
2022-08-20T04:47:34.807Z,100216.38
2022-08-20T04:50:38.299Z,100216.84
2022-08-20T04:53:40.046Z,100218.72
2022-08-20T04:56:41.882Z,100228.56
2022-08-20T04:59:44.031Z,100224.53
2022-08-20T05:02:45.831Z,100226.44
2022-08-20T05:05:48.345Z,100223.25
2022-08-20T05:08:49.986Z,100228.59
2022-08-20T05:11:52.284Z,100234.78
2022-08-20T05:14:54.255Z,100241.22
2022-08-20T05:18:00.562Z,100234.31
2022-08-20T05:21:06.291Z,100243.28
2022-08-20T05:24:10.004Z,100243.41
2022-08-20T05:27:24.534Z,100250.13
2022-08-20T05:30:33.349Z,100261.16
2022-08-20T05:33:37.557Z,100270.53
2022-08-20T05:36:40.782Z,100265.19
2022-08-20T05:39:42.376Z,100270.38
2022-08-20T05:42:43.869Z,100274.72
2022-08-20T05:45:47.028Z,100281.44
2022-08-20T05:48:48.923Z,100283.22
2022-08-20T05:51:53.160Z,100293.91
2022-08-20T05:54:55.497Z,100286.31
2022-08-20T05:58:01.754Z,100290.22
2022-08-20T06:01:04.305Z,100292.41
2022-08-20T06:04:24.728Z,100293.63
2022-08-20T06:07:26.245Z,100290.41
2022-08-20T06:10:27.724Z,100291.59
2022-08-20T06:13:29.289Z,100294.66
2022-08-20T06:16:30.923Z,100288.91
2022-08-20T06:19:34.093Z,100299.44
2022-08-20T06:22:35.607Z,100302.03
2022-08-20T06:25:38.028Z,100304.19
2022-08-20T06:28:39.619Z,100310.22
2022-08-20T06:31:41.104Z,100313.31
2022-08-20T06:34:50.653Z,100308.69
2022-08-20T06:37:53.186Z,100304.53
2022-08-20T06:40:54.623Z,100310.94
2022-08-20T06:43:56.404Z,100307.88
2022-08-20T06:47:01.161Z,100312.84
2022-08-20T06:50:02.777Z,100313.28
2022-08-20T06:53:04.719Z,100319.28
2022-08-20T06:56:06.611Z,100324.19
2022-08-20T06:59:08.067Z,100319.53
2022-08-20T07:02:10.057Z,100320.22
2022-08-20T07:05:11.593Z,100323.69
2022-08-20T07:08:18.436Z,100323.00
2022-08-20T07:11:23.740Z,100327.47
2022-08-20T07:14:29.176Z,100331.47
2022-08-20T07:17:30.764Z,100333.56
2022-08-20T07:20:35.789Z,100331.16
2022-08-20T07:23:37.547Z,100337.25
2022-08-20T07:26:39.337Z,100336.91
2022-08-20T07:29:59.371Z,100335.75
2022-08-20T07:33:00.975Z,100330.06
2022-08-20T07:36:05.973Z,100335.34
2022-08-20T07:39:07.511Z,100337.53
2022-08-20T07:42:11.356Z,100341.19
2022-08-20T07:45:15.125Z,100351.13
2022-08-20T07:48:30.898Z,100356.00
2022-08-20T07:51:33.036Z,100353.25
2022-08-20T07:54:37.991Z,100355.25
2022-08-20T07:57:39.516Z,100355.41
2022-08-20T08:00:41.199Z,100341.09
2022-08-20T08:03:49.731Z,100349.53
2022-08-20T08:06:52.601Z,100354.50
2022-08-20T08:09:55.530Z,100358.38
2022-08-20T08:13:00.616Z,100360.13
2022-08-20T08:16:05.093Z,100354.78
2022-08-20T08:19:11.925Z,100355.38
2022-08-20T08:22:16.259Z,100356.41
2022-08-20T08:25:18.225Z,100355.75
2022-08-20T08:28:21.088Z,100350.22
2022-08-20T08:31:22.767Z,100349.63
2022-08-20T08:34:25.496Z,100357.72
2022-08-20T08:37:30.165Z,100352.28
2022-08-20T08:40:33.684Z,100348.19
2022-08-20T08:43:35.372Z,100356.16
2022-08-20T08:46:41.806Z,100354.22
2022-08-20T08:49:43.637Z,100356.28
2022-08-20T08:52:46.421Z,100350.25
2022-08-20T08:55:48.748Z,100352.38
2022-08-20T08:58:50.651Z,100346.03
2022-08-20T09:01:57.198Z,100349.34
2022-08-20T09:05:02.329Z,100353.16
2022-08-20T09:08:07.293Z,100349.63
2022-08-20T09:11:10.572Z,100346.88
2022-08-20T09:14:12.894Z,100342.72
2022-08-20T09:17:16.050Z,100352.28
2022-08-20T09:20:18.317Z,100354.66
2022-08-20T09:23:19.935Z,100347.38
2022-08-20T09:26:21.715Z,100349.75
2022-08-20T09:29:27.152Z,100344.97
2022-08-20T09:32:29.733Z,100348.16
2022-08-20T09:35:31.282Z,100347.91
2022-08-20T09:38:32.773Z,100347.28
2022-08-20T09:41:34.659Z,100349.81
2022-08-20T09:44:36.337Z,100342.06
2022-08-20T09:47:38.261Z,100345.19
2022-08-20T09:50:48.334Z,100343.13
2022-08-20T09:53:50.419Z,100343.97
2022-08-20T09:56:51.900Z,100345.34
2022-08-20T09:59:57.908Z,100340.75
2022-08-20T10:03:00.747Z,100344.13
2022-08-20T10:06:02.394Z,100333.41
2022-08-20T10:09:04.592Z,100329.09
2022-08-20T10:12:06.429Z,100330.56
2022-08-20T10:15:08.683Z,100328.91
2022-08-20T10:18:10.343Z,100326.16
2022-08-20T10:21:13.868Z,100320.81
2022-08-20T10:24:15.282Z,100304.81
2022-08-20T10:27:16.757Z,100316.94
2022-08-20T10:30:18.240Z,100308.31
2022-08-20T10:33:20.059Z,100304.72
2022-08-20T10:36:21.554Z,100306.84
2022-08-20T10:39:23.012Z,100308.31
2022-08-20T10:42:24.675Z,100310.53
2022-08-20T10:45:26.158Z,100309.25
2022-08-20T10:48:27.896Z,100314.16
2022-08-20T10:51:32.821Z,100305.59
2022-08-20T10:54:34.478Z,100298.88
2022-08-20T10:57:38.816Z,100304.06
2022-08-20T11:00:41.374Z,100294.06
2022-08-20T11:03:42.845Z,100295.25
2022-08-20T11:06:44.294Z,100295.31
2022-08-20T11:09:47.651Z,100294.41
2022-08-20T11:12:49.172Z,100293.88
2022-08-20T11:15:51.044Z,100290.72
2022-08-20T11:18:54.544Z,100284.25
2022-08-20T11:21:56.158Z,100284.44
2022-08-20T11:24:57.654Z,100282.91
2022-08-20T11:27:59.694Z,100272.81
2022-08-20T11:31:02.185Z,100274.78
2022-08-20T11:34:04.054Z,100282.34
2022-08-20T11:37:05.695Z,100279.38
2022-08-20T11:40:09.112Z,100272.06
2022-08-20T11:43:15.487Z,100266.56
2022-08-20T11:46:18.027Z,100266.72
2022-08-20T11:49:19.582Z,100272.94
2022-08-20T11:52:21.031Z,100280.88
2022-08-20T11:55:28.968Z,100279.66
2022-08-20T11:58:33.751Z,100271.72
2022-08-20T12:01:35.174Z,100265.66
2022-08-20T12:04:36.626Z,100264.63
2022-08-20T12:07:39.038Z,100272.28
2022-08-20T12:10:40.596Z,100260.13
2022-08-20T12:13:48.005Z,100260.69
2022-08-20T12:16:50.489Z,100260.88
2022-08-20T12:19:53.660Z,100256.38
2022-08-20T12:22:55.497Z,100255.38
2022-08-20T12:25:57.508Z,100247.84
2022-08-20T12:29:00.862Z,100257.28
2022-08-20T12:32:02.432Z,100243.59
2022-08-20T12:35:06.454Z,100252.09
2022-08-20T12:38:07.989Z,100248.25
2022-08-20T12:41:09.563Z,100246.72
2022-08-20T12:44:13.507Z,100236.59
2022-08-20T12:47:17.442Z,100232.97
2022-08-20T12:50:28.523Z,100233.41
2022-08-20T12:53:32.669Z,100240.13
2022-08-20T12:56:35.926Z,100244.47
2022-08-20T12:59:37.357Z,100239.78
2022-08-20T13:02:41.081Z,100239.03
2022-08-20T13:05:42.728Z,100237.91
2022-08-20T13:08:44.194Z,100246.50
2022-08-20T13:11:45.722Z,100240.56
2022-08-20T13:14:47.286Z,100236.31
2022-08-20T13:17:57.251Z,100228.72
2022-08-20T13:20:58.739Z,100238.81
2022-08-20T13:24:00.264Z,100233.41
2022-08-20T13:27:09.282Z,100236.78
2022-08-20T13:30:13.969Z,100233.63
2022-08-20T13:33:15.802Z,100229.97
2022-08-20T13:36:17.405Z,100228.66
2022-08-20T13:39:18.893Z,100219.34
2022-08-20T13:42:20.965Z,100221.28
2022-08-20T13:45:22.490Z,100212.44
2022-08-20T13:48:24.025Z,100220.28
2022-08-20T13:51:27.682Z,100207.56
2022-08-20T13:54:32.219Z,100211.38
2022-08-20T13:57:36.114Z,100208.16
2022-08-20T14:00:37.693Z,100195.53
2022-08-20T14:03:39.176Z,100200.75
2022-08-20T14:06:44.151Z,100194.66
2022-08-20T14:09:49.091Z,100204.97
2022-08-20T14:12:51.112Z,100204.44
2022-08-20T14:15:52.897Z,100202.72
2022-08-20T14:18:56.217Z,100202.84
2022-08-20T14:21:57.677Z,100212.88
2022-08-20T14:25:02.988Z,100204.88
2022-08-20T14:28:20.472Z,100205.69
2022-08-20T14:31:22.001Z,100201.66
2022-08-20T14:34:23.479Z,100196.66
2022-08-20T14:37:27.939Z,100194.63
2022-08-20T14:40:29.478Z,100196.16
2022-08-20T14:43:30.973Z,100192.91
2022-08-20T14:46:32.509Z,100196.28
2022-08-20T14:49:33.952Z,100200.50
2022-08-20T14:52:36.710Z,100207.81
2022-08-20T14:55:38.618Z,100201.28
2022-08-20T14:58:40.068Z,100190.78
2022-08-20T15:01:41.607Z,100199.50
2022-08-20T15:04:44.252Z,100179.75
2022-08-20T15:08:07.172Z,100175.78
2022-08-20T15:11:08.941Z,100172.13
2022-08-20T15:14:10.986Z,100180.53
2022-08-20T15:17:26.456Z,100169.63
2022-08-20T15:20:30.990Z,100156.50
2022-08-20T15:23:32.504Z,100173.31
2022-08-20T15:26:34.287Z,100167.47
2022-08-20T15:29:35.725Z,100171.91
2022-08-20T15:32:37.200Z,100163.28
2022-08-20T15:35:39.167Z,100166.09
2022-08-20T15:38:40.694Z,100166.81
2022-08-20T15:41:42.151Z,100166.44
2022-08-20T15:44:43.917Z,100165.09
2022-08-20T15:47:54.706Z,100168.97
2022-08-20T15:51:18.544Z,100169.38
2022-08-20T15:54:24.936Z,100165.00
2022-08-20T15:57:37.275Z,100174.25
2022-08-20T16:00:58.043Z,100175.81
2022-08-20T16:04:43.647Z,100175.03
2022-08-20T16:07:58.573Z,100176.28
2022-08-20T16:11:36.451Z,100180.75
2022-08-20T16:14:44.050Z,100178.78
2022-08-20T16:18:24.407Z,100184.22
2022-08-20T16:21:37.250Z,100186.41
2022-08-20T16:24:38.768Z,100194.63
2022-08-20T16:27:54.711Z,100198.22
2022-08-20T16:31:14.049Z,100197.50
2022-08-20T16:34:33.540Z,100203.91
2022-08-20T16:37:44.282Z,100197.31
2022-08-20T16:40:50.774Z,100196.31
2022-08-20T16:43:56.274Z,100204.22
2022-08-20T16:47:13.651Z,100204.25
2022-08-20T16:50:21.705Z,100205.50
2022-08-20T16:53:25.508Z,100204.34
2022-08-20T16:56:31.263Z,100202.72
2022-08-20T16:59:33.204Z,100206.91
2022-08-20T17:02:35.728Z,100207.59
2022-08-20T17:05:45.677Z,100204.19
2022-08-20T17:08:50.201Z,100208.91
2022-08-20T17:11:52.525Z,100217.94
2022-08-20T17:14:56.605Z,100210.06
2022-08-20T17:18:15.829Z,100205.69
2022-08-20T17:21:23.483Z,100206.72
2022-08-20T17:24:29.795Z,100208.22
2022-08-20T17:27:31.502Z,100214.69
2022-08-20T17:30:37.155Z,100210.53
2022-08-20T17:33:39.685Z,100199.31
2022-08-20T17:36:51.365Z,100203.47
2022-08-20T17:40:04.704Z,100210.31
2022-08-20T17:43:09.494Z,100221.03
2022-08-20T17:46:18.770Z,100220.13
2022-08-20T17:49:34.112Z,100227.84
2022-08-20T17:52:41.719Z,100227.56
2022-08-20T17:55:44.769Z,100229.88
2022-08-20T17:58:54.336Z,100233.97
2022-08-20T18:01:59.608Z,100230.69
2022-08-20T18:05:04.607Z,100235.88
2022-08-20T18:08:42.848Z,100240.03
2022-08-20T18:11:55.838Z,100252.22
2022-08-20T18:15:01.297Z,100247.25
2022-08-20T18:18:25.467Z,100254.94
2022-08-20T18:22:06.329Z,100262.72
2022-08-20T18:25:13.159Z,100258.56
2022-08-20T18:28:23.176Z,100259.47
2022-08-20T18:31:32.630Z,100262.28
2022-08-20T18:34:41.417Z,100261.06
2022-08-20T18:37:43.118Z,100265.31
2022-08-20T18:40:45.119Z,100274.06
2022-08-20T18:43:46.648Z,100275.28
2022-08-20T18:46:54.421Z,100280.84
2022-08-20T18:50:17.256Z,100282.81
2022-08-20T18:53:29.168Z,100283.66
2022-08-20T18:56:37.712Z,100284.47
2022-08-20T18:59:46.195Z,100286.69
2022-08-20T19:03:06.187Z,100279.59
2022-08-20T19:06:27.407Z,100291.63
2022-08-20T19:09:40.750Z,100293.31
2022-08-20T19:13:36.688Z,100308.00
2022-08-20T19:16:45.580Z,100308.66
2022-08-20T19:19:58.549Z,100305.81
2022-08-20T19:23:06.812Z,100307.66
2022-08-20T19:26:25.157Z,100310.28
2022-08-20T19:29:35.807Z,100316.81
2022-08-20T19:32:40.857Z,100316.34
2022-08-20T19:35:46.058Z,100320.13
2022-08-20T19:38:52.368Z,100314.75
2022-08-20T19:41:59.178Z,100321.53
2022-08-20T19:45:05.413Z,100319.41
2022-08-20T19:48:38.418Z,100326.91
2022-08-20T19:52:04.741Z,100329.84
2022-08-20T19:55:19.391Z,100331.81
2022-08-20T19:58:26.027Z,100326.75
2022-08-20T20:01:28.979Z,100324.94
2022-08-20T20:04:39.922Z,100319.69
2022-08-20T20:07:47.574Z,100329.75
2022-08-20T20:11:00.486Z,100322.91
2022-08-20T20:14:06.337Z,100323.47
2022-08-20T20:17:10.117Z,100317.31
2022-08-20T20:20:19.360Z,100331.41
2022-08-20T20:23:25.830Z,100326.56
2022-08-20T20:26:34.854Z,100323.34
2022-08-20T20:29:37.006Z,100330.25
2022-08-20T20:32:41.850Z,100332.22
2022-08-20T20:35:45.109Z,100327.41
2022-08-20T20:38:58.919Z,100330.16
2022-08-20T20:42:04.418Z,100324.72
2022-08-20T20:45:19.139Z,100328.84
2022-08-20T20:48:24.555Z,100326.69
2022-08-20T20:51:30.387Z,100332.53
2022-08-20T20:54:34.682Z,100327.91
2022-08-20T20:57:38.948Z,100325.81
2022-08-20T21:00:40.598Z,100326.38
2022-08-20T21:03:42.038Z,100323.31
2022-08-20T21:06:44.035Z,100327.34
2022-08-20T21:09:45.650Z,100331.56
2022-08-20T21:12:52.401Z,100339.09
2022-08-20T21:15:54.514Z,100331.38
2022-08-20T21:18:56.319Z,100344.53
2022-08-20T21:21:57.827Z,100344.59
2022-08-20T21:24:59.342Z,100345.09
2022-08-20T21:28:00.933Z,100348.19
2022-08-20T21:31:02.693Z,100351.28
2022-08-20T21:34:04.166Z,100355.59
2022-08-20T21:37:05.723Z,100353.91
2022-08-20T21:40:09.811Z,100359.66
2022-08-20T21:43:11.365Z,100350.69
2022-08-20T21:46:12.986Z,100356.00
2022-08-20T21:49:15.413Z,100353.69
2022-08-20T21:52:16.922Z,100359.59
2022-08-20T21:55:18.583Z,100347.47
2022-08-20T21:58:20.857Z,100352.03
2022-08-20T22:01:23.392Z,100351.44
2022-08-20T22:04:24.906Z,100345.31
2022-08-20T22:07:26.478Z,100355.41
2022-08-20T22:10:27.957Z,100348.06
2022-08-20T22:13:32.620Z,100342.72
2022-08-20T22:16:34.559Z,100350.81
2022-08-20T22:19:36.049Z,100355.75
2022-08-20T22:22:37.466Z,100350.47
2022-08-20T22:25:40.017Z,100353.50
2022-08-20T22:28:41.837Z,100353.19
2022-08-20T22:31:44.630Z,100353.91
2022-08-20T22:34:46.256Z,100355.22
2022-08-20T22:37:47.680Z,100363.66
2022-08-20T22:40:49.815Z,100365.13
2022-08-20T22:43:55.777Z,100364.31
2022-08-20T22:47:02.639Z,100363.75
2022-08-20T22:50:04.466Z,100366.06
2022-08-20T22:53:07.741Z,100364.06
2022-08-20T22:56:09.246Z,100367.72
2022-08-20T22:59:22.913Z,100370.28
2022-08-20T23:02:24.734Z,100368.19
2022-08-20T23:05:28.582Z,100365.50
2022-08-20T23:08:30.518Z,100368.72
2022-08-20T23:11:32.041Z,100374.38
2022-08-20T23:14:33.977Z,100376.69
2022-08-20T23:17:35.615Z,100376.31
2022-08-20T23:20:37.151Z,100376.59
2022-08-20T23:23:38.685Z,100374.28
2022-08-20T23:26:40.437Z,100366.34
2022-08-20T23:29:54.213Z,100371.66
2022-08-20T23:32:55.916Z,100373.88
2022-08-20T23:35:59.478Z,100380.38
2022-08-20T23:39:01.091Z,100378.53
2022-08-20T23:42:10.974Z,100371.19
2022-08-20T23:45:13.001Z,100370.25
2022-08-20T23:48:14.409Z,100367.13
2022-08-20T23:51:15.882Z,100367.38
2022-08-20T23:54:17.935Z,100364.59
2022-08-20T23:57:20.907Z,100364.31
